Time;durP1;ratioP1;P1;durP2;ratioP2;P2;SDS_P1;SDS_P2;PMS_P1;PMS_P2;Temp;Humidity;BMP_temperature;BMP_pressure;BME280_temperature;BME280_humidity;BME280_pressure;Samples;Min_cycle;Max_cycle;Signal;HPM_P1;HPM_P2
2022/06/08 00:01:46;;;;;;;;;;;;;;;;;;5057312;28;19915;-77
2022/06/08 00:04:32;;;;;;;;;;;;;;;;;;5072379;28;19923;-77
2022/06/08 00:07:19;;;;;;;;;;;;;;;;;;5075553;28;19923;-77
2022/06/08 00:10:05;;;;;;;;;;;;;;;;;;5080484;28;19916;-77
2022/06/08 00:12:52;;;;;;;;;;;;;;;;;;5073339;28;19918;-76
2022/06/08 00:15:38;;;;;;;;;;;;;;;;;;5074213;28;19920;-76
2022/06/08 00:18:25;;;;;;;;;;;;;;;;;;5090028;28;19916;-77
2022/06/08 00:21:11;;;;;;;;;;;;;;;;;;5082564;28;19912;-77
2022/06/08 00:23:58;;;;;;;;;;;;;;;;;;5072845;28;19927;-76
2022/06/08 00:26:44;;;;;;;;;;;;;;;;;;5066435;28;19912;-79
2022/06/08 00:29:31;;;;;;;;;;;;;;;;;;5077964;28;20276;-78
2022/06/08 00:32:18;;;;;;;;;;;;;;;;;;5075623;28;19912;-78
2022/06/08 00:35:04;;;;;;;;;;;;;;;;;;5075403;28;19912;-78
2022/06/08 00:37:51;;;;;;;;;;;;;;;;;;5075217;28;19927;-78
2022/06/08 00:40:37;;;;;;;;;;;;;;;;;;5072380;28;19923;-78
2022/06/08 00:43:24;;;;;;;;;;;;;;;;;;5073276;28;19920;-78
2022/06/08 00:46:10;;;;;;;;;;;;;;;;;;5077927;28;19912;-78
2022/06/08 00:48:57;;;;;;;;;;;;;;;;;;5085993;28;19912;-77
2022/06/08 00:51:43;;;;;;;;;;;;;;;;;;5078511;28;20258;-77
2022/06/08 00:54:30;;;;;;;;;;;;;;;;;;5088435;28;19919;-78
2022/06/08 00:57:16;;;;;;;;;;;;;;;;;;5074401;28;20888;-76
2022/06/08 01:00:03;;;;;;;;;;;;;;;;;;5081293;28;19915;-77
2022/06/08 01:02:49;;;;;;;;;;;;;;;;;;5080844;28;19930;-76
2022/06/08 01:05:35;;;;;;;;;;;;;;;;;;5080500;28;19923;-77
2022/06/08 01:08:22;;;;;;;;;;;;;;;;;;5071548;28;19913;-76
2022/06/08 01:11:08;;;;;;;;;;;;;;;;;;5081161;28;20291;-81
2022/06/08 01:13:55;;;;;;;;;;;;;;;;;;5078899;28;19919;-76
2022/06/08 01:16:41;;;;;;;;;;;;;;;;;;5076313;28;20440;-77
2022/06/08 01:19:28;;;;;;;;;;;;;;;;;;5076100;28;19923;-77
2022/06/08 01:22:14;;;;;;;;;;;;;;;;;;5079173;28;19922;-78
2022/06/08 01:25:01;;;;;;;;;;;;;;;;;;5080656;28;19935;-77
2022/06/08 01:27:47;;;;;;;;;;;;;;;;;;5071174;28;19912;-77
2022/06/08 01:30:34;;;;;;;;;;;;;;;;;;5082669;28;19943;-79
2022/06/08 01:33:20;;;;;;;;;;;;;;;;;;5081429;28;19919;-78
2022/06/08 01:36:07;;;;;;;;;;;;;;;;;;5078439;28;19917;-78
2022/06/08 01:38:53;;;;;;;;;;;;;;;;;;5078495;28;19923;-78
2022/06/08 01:41:40;;;;;;;;;;;;;;;;;;5085165;28;20357;-78
2022/06/08 01:44:26;;;;;;;;;;;;;;;;;;5084365;28;19915;-78
2022/06/08 01:47:12;;;;;;;;;;;;;;;;;;5076948;28;19912;-79
2022/06/08 01:49:59;;;;;;;;;;;;;;;;;;5079675;28;19947;-78
2022/06/08 01:52:45;;;;;;;;;;;;;;;;;;5076196;28;19915;-78
2022/06/08 01:55:33;;;;;;;;;;;;;;;;;;5082481;28;20337;-78
2022/06/08 01:58:19;;;;;;;;;;;;;;;;;;5074167;28;19915;-78
2022/06/08 02:01:06;;;;;;;;;;;;;;;;;;5075065;28;20391;-79
2022/06/08 02:03:52;;;;;;;;;;;;;;;;;;5075697;28;19913;-78
2022/06/08 02:06:39;;;;;;;;;;;;;;;;;;5078316;28;20394;-78
2022/06/08 02:09:26;;;;;;;;;;;;;;;;;;5084304;28;19912;-78
2022/06/08 02:12:12;;;;;;;;;;;;;;;;;;5084650;28;19923;-77
2022/06/08 02:14:59;;;;;;;;;;;;;;;;;;5079263;28;19919;-78
2022/06/08 02:17:48;;;;;;;;;;;;;;;;;;5076060;28;20014;-78
2022/06/08 02:20:35;;;;;;;;;;;;;;;;;;5078092;28;19908;-78
2022/06/08 02:23:22;;;;;;;;;;;;;;;;;;5084600;28;19916;-78
2022/06/08 02:26:11;;;;;;;;;;;;;;;;;;5061312;28;20010;-78
2022/06/08 02:28:57;;;;;;;;;;;;;;;;;;5081077;28;19916;-77
2022/06/08 02:31:44;;;;;;;;;;;;;;;;;;5074296;28;20387;-78
2022/06/08 02:34:31;;;;;;;;;;;;;;;;;;5069517;28;19915;-77
2022/06/08 02:37:18;;;;;;;;;;;;;;;;;;5085466;28;19925;-77
2022/06/08 02:40:04;;;;;;;;;;;;;;;;;;5075691;28;19908;-78
2022/06/08 02:42:51;;;;;;;;;;;;;;;;;;5076415;28;19914;-78
2022/06/08 02:45:37;;;;;;;;;;;;;;;;;;5071104;28;19922;-77
2022/06/08 02:48:24;;;;;;;;;;;;;;;;;;5072394;28;19954;-77
2022/06/08 02:51:13;;;;;;;;;;;;;;;;;;5079312;28;20506;-77
2022/06/08 02:53:59;;;;;;;;;;;;;;;;;;5075270;28;19918;-77
2022/06/08 02:56:46;;;;;;;;;;;;;;;;;;5081857;28;19919;-76
2022/06/08 02:59:32;;;;;;;;;;;;;;;;;;5082992;28;19912;-75
2022/06/08 03:02:19;;;;;;;;;;;;;;;;;;5075561;28;19916;-75
2022/06/08 03:05:08;;;;;;;;;;;;;;;;;;5075250;28;19912;-76
2022/06/08 03:07:54;;;;;;;;;;;;;;;;;;5080479;28;19919;-75
2022/06/08 03:10:41;;;;;;;;;;;;;;;;;;5076925;28;19916;-76
2022/06/08 03:13:27;;;;;;;;;;;;;;;;;;5069921;28;19920;-75
2022/06/08 03:16:14;;;;;;;;;;;;;;;;;;5089235;28;19908;-75
2022/06/08 03:19:00;;;;;;;;;;;;;;;;;;5090701;28;19912;-73
2022/06/08 03:21:47;;;;;;;;;;;;;;;;;;5077778;28;19923;-74
2022/06/08 03:24:36;;;;;;;;;;;;;;;;;;5068839;28;19920;-77
2022/06/08 03:27:23;;;;;;;;;;;;;;;;;;5078718;28;19919;-76
2022/06/08 03:30:10;;;;;;;;;;;;;;;;;;5078756;28;19935;-75
2022/06/08 03:32:56;;;;;;;;;;;;;;;;;;5075742;28;19919;-76
2022/06/08 03:35:42;;;;;;;;;;;;;;;;;;5061109;28;19931;-74
2022/06/08 03:38:29;;;;;;;;;;;;;;;;;;5080687;28;19928;-76
2022/06/08 03:41:15;;;;;;;;;;;;;;;;;;5080998;28;19912;-76
2022/06/08 03:44:03;;;;;;;;;;;;;;;;;;5078033;28;19923;-75
2022/06/08 03:46:50;;;;;;;;;;;;;;;;;;5080642;28;19916;-76
2022/06/08 03:49:36;;;;;;;;;;;;;;;;;;5080994;28;19923;-74
2022/06/08 03:52:23;;;;;;;;;;;;;;;;;;5078222;28;19939;-75
2022/06/08 03:55:10;;;;;;;;;;;;;;;;;;5079298;28;19924;-76
2022/06/08 03:57:56;;;;;;;;;;;;;;;;;;5077861;28;19920;-75
2022/06/08 04:00:43;;;;;;;;;;;;;;;;;;5079418;28;20376;-76
2022/06/08 04:03:29;;;;;;;;;;;;;;;;;;5061222;28;19975;-75
2022/06/08 04:06:16;;;;;;;;;;;;;;;;;;5079540;28;19912;-75
2022/06/08 04:09:03;;;;;;;;;;;;;;;;;;5077064;28;20023;-75
2022/06/08 04:11:50;;;;;;;;;;;;;;;;;;5086312;28;19924;-76
2022/06/08 04:14:36;;;;;;;;;;;;;;;;;;5078510;28;19919;-77
2022/06/08 04:17:23;;;;;;;;;;;;;;;;;;5080648;28;19920;-77
2022/06/08 04:20:09;;;;;;;;;;;;;;;;;;5080957;28;19920;-77
2022/06/08 04:22:56;;;;;;;;;;;;;;;;;;5079302;28;19912;-76
2022/06/08 04:25:42;;;;;;;;;;;;;;;;;;5081871;28;19919;-76
2022/06/08 04:28:29;;;;;;;;;;;;;;;;;;5081738;28;19961;-76
2022/06/08 04:31:15;;;;;;;;;;;;;;;;;;5079832;28;19927;-77
2022/06/08 04:34:02;;;;;;;;;;;;;;;;;;5065547;28;19924;-76
2022/06/08 04:36:48;;;;;;;;;;;;;;;;;;5067125;28;19961;-76
2022/06/08 04:39:35;;;;;;;;;;;;;;;;;;5074929;28;19957;-77
2022/06/08 04:42:22;;;;;;;;;;;;;;;;;;5086145;28;19957;-75
2022/06/08 04:45:08;;;;;;;;;;;;;;;;;;5082370;28;19935;-76
2022/06/08 04:47:55;;;;;;;;;;;;;;;;;;5081567;28;19920;-76
2022/06/08 04:50:41;;;;;;;;;;;;;;;;;;5073714;28;19928;-76
2022/06/08 04:53:28;;;;;;;;;;;;;;;;;;5068472;28;19919;-78
2022/06/08 04:56:14;;;;;;;;;;;;;;;;;;5074600;28;19920;-77
2022/06/08 04:59:01;;;;;;;;;;;;;;;;;;5068556;28;19912;-77
2022/06/08 05:01:47;;;;;;;;;;;;;;;;;;5083020;28;20332;-76
2022/06/08 05:04:34;;;;;;;;;;;;;;;;;;5079903;28;19908;-74
2022/06/08 05:07:21;;;;;;;;;;;;;;;;;;5078319;28;19912;-75
2022/06/08 05:10:07;;;;;;;;;;;;;;;;;;5070022;28;19968;-75
2022/06/08 05:12:53;;;;;;;;;;;;;;;;;;5079806;28;19916;-76
2022/06/08 05:15:40;;;;;;;;;;;;;;;;;;5086297;28;19939;-76
2022/06/08 05:18:27;;;;;;;;;;;;;;;;;;5071256;28;19920;-75
2022/06/08 05:21:13;;;;;;;;;;;;;;;;;;5072798;28;19923;-75
2022/06/08 05:24:00;;;;;;;;;;;;;;;;;;5070896;28;19943;-75
2022/06/08 05:26:47;;;;;;;;;;;;;;;;;;5080663;28;19912;-75
2022/06/08 05:29:33;;;;;;;;;;;;;;;;;;5070851;28;19916;-75
2022/06/08 05:32:20;;;;;;;;;;;;;;;;;;5081278;28;20380;-75
2022/06/08 05:35:06;;;;;;;;;;;;;;;;;;5076894;28;19912;-75
2022/06/08 05:37:52;;;;;;;;;;;;;;;;;;5088490;28;19924;-75
2022/06/08 05:40:39;;;;;;;;;;;;;;;;;;5078700;28;20241;-75
2022/06/08 05:43:26;;;;;;;;;;;;;;;;;;5071011;28;19915;-75
2022/06/08 05:46:12;;;;;;;;;;;;;;;;;;5072157;28;20296;-77
2022/06/08 05:48:59;;;;;;;;;;;;;;;;;;5079129;28;19915;-75
2022/06/08 05:51:46;;;;;;;;;;;;;;;;;;5082015;28;19928;-76
2022/06/08 05:54:33;;;;;;;;;;;;;;;;;;5061986;28;19923;-77
2022/06/08 05:57:20;;;;;;;;;;;;;;;;;;5087230;28;19926;-76
2022/06/08 06:00:06;;;;;;;;;;;;;;;;;;5068324;28;20298;-76
2022/06/08 06:02:53;;;;;;;;;;;;;;;;;;5084083;28;19912;-76
2022/06/08 06:05:39;;;;;;;;;;;;;;;;;;5071098;28;20410;-76
2022/06/08 06:08:25;;;;;;;;;;;;;;;;;;5101285;28;19915;-76
2022/06/08 06:11:13;;;;;;;;;;;;;;;;;;5086147;28;19920;-75
2022/06/08 06:13:59;;;;;;;;;;;;;;;;;;5059695;28;20634;-76
2022/06/08 06:16:46;;;;;;;;;;;;;;;;;;5087805;28;19909;-76
2022/06/08 06:19:32;;;;;;;;;;;;;;;;;;5069152;28;20311;-76
2022/06/08 06:22:19;;;;;;;;;;;;;;;;;;5080752;28;19919;-75
2022/06/08 06:25:05;;;;;;;;;;;;;;;;;;5065345;28;19919;-76
2022/06/08 06:27:51;;;;;;;;;;;;;;;;;;5083865;28;20443;-75
2022/06/08 06:30:38;;;;;;;;;;;;;;;;;;5065794;28;19934;-75
2022/06/08 06:33:24;;;;;;;;;;;;;;;;;;5076143;28;19915;-75
2022/06/08 06:36:11;;;;;;;;;;;;;;;;;;5088363;28;19934;-76
2022/06/08 06:38:57;;;;;;;;;;;;;;;;;;5083977;28;19920;-77
2022/06/08 06:41:44;;;;;;;;;;;;;;;;;;5072426;28;19982;-75
2022/06/08 06:44:30;;;;;;;;;;;;;;;;;;5074564;28;19919;-76
2022/06/08 06:47:34;;;;;;;;;;;;;;;;;;5074293;28;19917;-75
2022/06/08 06:50:21;;;;;;;;;;;;;;;;;;5080282;28;20394;-75
2022/06/08 06:53:07;;;;;;;;;;;;;;;;;;5059126;28;19916;-75
2022/06/08 06:55:55;;;;;;;;;;;;;;;;;;5089731;28;20316;-76
2022/06/08 06:58:42;;;;;;;;;;;;;;;;;;5054597;28;19919;-76
2022/06/08 07:01:29;;;;;;;;;;;;;;;;;;5070358;28;20478;-76
2022/06/08 07:04:15;;;;;;;;;;;;;;;;;;5072154;28;20368;-74
2022/06/08 07:07:01;;;;;;;;;;;;;;;;;;5067922;28;19919;-75
2022/06/08 07:09:48;;;;;;;;;;;;;;;;;;5082407;28;19908;-76
2022/06/08 07:12:34;;;;;;;;;;;;;;;;;;5068897;28;20390;-74
2022/06/08 07:15:21;;;;;;;;;;;;;;;;;;5084561;28;19915;-75
2022/06/08 07:18:07;;;;;;;;;;;;;;;;;;5089657;28;20305;-76
2022/06/08 07:20:54;;;;;;;;;;;;;;;;;;5081059;28;19916;-75
2022/06/08 07:23:41;;;;;;;;;;;;;;;;;;5072121;28;19940;-75
2022/06/08 07:26:28;;;;;;;;;;;;;;;;;;5087669;28;19908;-76
2022/06/08 07:29:14;;;;;;;;;;;;;;;;;;5070343;28;19913;-75
2022/06/08 07:32:01;;;;;;;;;;;;;;;;;;5074301;28;19916;-74
2022/06/08 07:34:47;;;;;;;;;;;;;;;;;;5076678;28;19912;-75
2022/06/08 07:37:34;;;;;;;;;;;;;;;;;;5083332;28;20060;-75
2022/06/08 07:40:20;;;;;;;;;;;;;;;;;;5074747;28;19919;-76
2022/06/08 07:43:07;;;;;;;;;;;;;;;;;;5089809;28;19909;-76
2022/06/08 07:45:53;;;;;;;;;;;;;;;;;;5089294;28;19955;-76
2022/06/08 07:51:46;;;;;;;;;;;;;;;;;;5086061;28;20325;-76
2022/06/08 07:54:32;;;;;;;;;;;;;;;;;;5082556;28;19923;-75
2022/06/08 07:57:19;;;;;;;;;;;;;;;;;;5081900;28;19913;-76
2022/06/08 08:00:05;;;;;;;;;;;;;;;;;;5076504;28;19920;-76
2022/06/08 08:02:52;;;;;;;;;;;;;;;;;;5079487;28;20472;-76
2022/06/08 08:05:38;;;;;;;;;;;;;;;;;;5080519;28;19951;-77
2022/06/08 08:08:25;;;;;;;;;;;;;;;;;;5073944;28;19908;-76
2022/06/08 08:11:11;;;;;;;;;;;;;;;;;;5074910;28;19923;-76
2022/06/08 08:13:58;;;;;;;;;;;;;;;;;;5089271;28;19939;-76
2022/06/08 08:16:44;;;;;;;;;;;;;;;;;;5088583;28;20269;-76
2022/06/08 08:19:32;;;;;;;;;;;;;;;;;;5075337;28;19939;-76
2022/06/08 08:22:20;;;;;;;;;;;;;;;;;;5073993;28;19909;-75
2022/06/08 08:25:06;;;;;;;;;;;;;;;;;;5078313;28;19909;-75
2022/06/08 08:27:53;;;;;;;;;;;;;;;;;;5072160;28;19912;-75
2022/06/08 08:30:39;;;;;;;;;;;;;;;;;;5078701;28;20265;-76
2022/06/08 08:33:26;;;;;;;;;;;;;;;;;;5081842;28;19935;-75
2022/06/08 08:36:13;;;;;;;;;;;;;;;;;;5069516;28;19938;-75
2022/06/08 08:38:59;;;;;;;;;;;;;;;;;;5069861;28;19929;-76
2022/06/08 08:44:50;;;;;;;;;;;;;;;;;;5075745;28;20411;-76
2022/06/08 08:47:38;;;;;;;;;;;;;;;;;;5076132;28;19915;-75
2022/06/08 08:50:24;;;;;;;;;;;;;;;;;;5073982;28;20427;-75
2022/06/08 08:53:11;;;;;;;;;;;;;;;;;;5068977;28;19927;-75
2022/06/08 08:55:58;;;;;;;;;;;;;;;;;;5062027;28;20762;-75
2022/06/08 08:58:45;;;;;;;;;;;;;;;;;;5070637;28;19942;-76
2022/06/08 09:01:31;;;;;;;;;;;;;;;;;;5071276;28;20365;-76
2022/06/08 09:04:18;;;;;;;;;;;;;;;;;;5077204;28;19916;-76
2022/06/08 09:07:05;;;;;;;;;;;;;;;;;;5065292;28;19919;-76
2022/06/08 09:09:51;;;;;;;;;;;;;;;;;;5096641;28;19922;-80
2022/06/08 09:12:37;;;;;;;;;;;;;;;;;;5087264;28;19931;-77
2022/06/08 09:15:24;;;;;;;;;;;;;;;;;;5085474;28;19922;-78
2022/06/08 09:18:10;;;;;;;;;;;;;;;;;;5088353;28;19919;-79
2022/06/08 09:20:57;;;;;;;;;;;;;;;;;;5077647;28;19934;-77
2022/06/08 09:23:43;;;;;;;;;;;;;;;;;;5070674;28;20291;-77
2022/06/08 09:26:30;;;;;;;;;;;;;;;;;;5077914;28;19913;-78
2022/06/08 09:29:16;;;;;;;;;;;;;;;;;;5072932;28;19919;-76
2022/06/08 09:32:03;;;;;;;;;;;;;;;;;;5076067;28;19926;-78
2022/06/08 09:34:49;;;;;;;;;;;;;;;;;;5074313;28;19908;-78
2022/06/08 09:37:36;;;;;;;;;;;;;;;;;;5077215;28;19924;-78
2022/06/08 09:40:38;;;;;;;;;;;;;;;;;;5066684;28;20388;-78
2022/06/08 09:43:24;;;;;;;;;;;;;;;;;;5071536;28;19916;-78
2022/06/08 09:46:11;;;;;;;;;;;;;;;;;;5073166;28;19916;-78
2022/06/08 09:52:03;;;;;;;;;;;;;;;;;;5081405;28;19927;-78
2022/06/08 09:54:50;;;;;;;;;;;;;;;;;;5071466;28;19916;-76
2022/06/08 09:57:36;;;;;;;;;;;;;;;;;;5068579;28;19916;-77
2022/06/08 10:00:23;;;;;;;;;;;;;;;;;;5071151;28;20291;-77
2022/06/08 10:03:09;;;;;;;;;;;;;;;;;;5069551;28;19917;-78
2022/06/08 10:05:56;;;;;;;;;;;;;;;;;;5076653;28;20672;-77
2022/06/08 10:08:42;;;;;;;;;;;;;;;;;;5063672;28;19920;-77
2022/06/08 10:11:36;;;;;;;;;;;;;;;;;;5077994;28;20295;-77
2022/06/08 10:14:23;;;;;;;;;;;;;;;;;;5069967;28;19922;-77
2022/06/08 10:17:10;;;;;;;;;;;;;;;;;;5077081;28;19912;-77
2022/06/08 10:19:56;;;;;;;;;;;;;;;;;;5058957;28;19912;-78
2022/06/08 10:22:43;;;;;;;;;;;;;;;;;;5070886;28;19915;-76
2022/06/08 10:25:29;;;;;;;;;;;;;;;;;;5079779;28;19919;-77
2022/06/08 10:28:16;;;;;;;;;;;;;;;;;;5076244;28;20427;-77
2022/06/08 10:31:02;;;;;;;;;;;;;;;;;;5058367;28;19921;-78
2022/06/08 10:33:48;;;;;;;;;;;;;;;;;;5076545;28;19908;-78
2022/06/08 10:36:35;;;;;;;;;;;;;;;;;;5083440;28;19922;-78
2022/06/08 10:39:21;;;;;;;;;;;;;;;;;;5067589;28;20367;-77
2022/06/08 10:45:13;;;;;;;;;;;;;;;;;;5084339;28;20744;-77
2022/06/08 10:48:01;;;;;;;;;;;;;;;;;;5072785;28;19916;-76
2022/06/08 10:50:48;;;;;;;;;;;;;;;;;;5073496;28;19916;-77
2022/06/08 10:56:41;;;;;;;;;;;;;;;;;;5074274;28;19943;-78
2022/06/08 10:59:28;;;;;;;;;;;;;;;;;;5068682;28;19915;-78
2022/06/08 11:02:16;;;;;;;;;;;;;;;;;;5069583;28;19927;-78
2022/06/08 11:05:05;;;;;;;;;;;;;;;;;;5081297;28;19912;-78
2022/06/08 11:07:51;;;;;;;;;;;;;;;;;;5060250;28;19916;-77
2022/06/08 11:10:38;;;;;;;;;;;;;;;;;;5086299;28;19935;-77
2022/06/08 11:13:24;;;;;;;;;;;;;;;;;;5064315;28;19921;-77
2022/06/08 11:16:11;;;;;;;;;;;;;;;;;;5078105;28;20387;-77
2022/06/08 11:18:57;;;;;;;;;;;;;;;;;;5080506;28;19954;-77
2022/06/08 11:21:44;;;;;;;;;;;;;;;;;;5083860;28;19919;-77
2022/06/08 11:24:30;;;;;;;;;;;;;;;;;;5079157;28;20715;-77
2022/06/08 11:27:17;;;;;;;;;;;;;;;;;;5081307;28;19915;-78
2022/06/08 11:30:04;;;;;;;;;;;;;;;;;;5076394;28;19912;-78
2022/06/08 11:32:50;;;;;;;;;;;;;;;;;;5076647;28;20390;-78
2022/06/08 11:35:37;;;;;;;;;;;;;;;;;;5075141;28;19924;-79
2022/06/08 11:38:23;;;;;;;;;;;;;;;;;;5076239;28;19916;-79
2022/06/08 11:41:11;;;;;;;;;;;;;;;;;;5076592;28;19930;-79
2022/06/08 11:43:58;;;;;;;;;;;;;;;;;;5078725;28;19971;-79
2022/06/08 11:46:45;;;;;;;;;;;;;;;;;;5076602;28;19917;-79
2022/06/08 11:49:32;;;;;;;;;;;;;;;;;;5082250;28;19920;-79
2022/06/08 11:52:18;;;;;;;;;;;;;;;;;;5079103;28;19923;-79
2022/06/08 11:55:05;;;;;;;;;;;;;;;;;;5076370;28;20267;-79
2022/06/08 11:57:51;;;;;;;;;;;;;;;;;;5076980;28;19924;-77
2022/06/08 12:00:38;;;;;;;;;;;;;;;;;;5082827;28;19995;-77
2022/06/08 12:03:25;;;;;;;;;;;;;;;;;;5079270;28;19926;-78
2022/06/08 12:06:12;;;;;;;;;;;;;;;;;;5069385;28;19922;-79
2022/06/08 12:08:59;;;;;;;;;;;;;;;;;;5067020;28;19909;-79
2022/06/08 12:11:45;;;;;;;;;;;;;;;;;;5075247;28;19927;-78
2022/06/08 12:14:32;;;;;;;;;;;;;;;;;;5066219;28;20522;-78
2022/06/08 12:17:18;;;;;;;;;;;;;;;;;;5078340;28;19912;-79
2022/06/08 12:20:08;;;;;;;;;;;;;;;;;;5071596;28;20503;-79
2022/06/08 12:22:54;;;;;;;;;;;;;;;;;;5072919;28;20292;-78
2022/06/08 12:25:41;;;;;;;;;;;;;;;;;;5075493;28;19916;-79
2022/06/08 12:28:27;;;;;;;;;;;;;;;;;;5070849;28;19916;-77
2022/06/08 12:31:14;;;;;;;;;;;;;;;;;;5074210;28;19916;-78
2022/06/08 12:34:00;;;;;;;;;;;;;;;;;;5076358;28;20313;-79
2022/06/08 12:36:47;;;;;;;;;;;;;;;;;;5070746;28;19927;-79
2022/06/08 12:39:33;;;;;;;;;;;;;;;;;;5084317;28;20265;-78
2022/06/08 12:42:21;;;;;;;;;;;;;;;;;;5069805;28;19916;-79
2022/06/08 12:45:08;;;;;;;;;;;;;;;;;;5080270;28;19908;-79
2022/06/08 12:47:54;;;;;;;;;;;;;;;;;;5085330;28;19920;-79
2022/06/08 12:50:41;;;;;;;;;;;;;;;;;;5083751;28;20272;-78
2022/06/08 12:53:29;;;;;;;;;;;;;;;;;;5082314;28;20279;-78
2022/06/08 12:56:18;;;;;;;;;;;;;;;;;;5085562;28;19915;-77
2022/06/08 12:59:04;;;;;;;;;;;;;;;;;;5072388;28;19909;-77
2022/06/08 13:01:51;;;;;;;;;;;;;;;;;;5076194;28;19923;-79
2022/06/08 13:04:37;;;;;;;;;;;;;;;;;;5075716;28;19912;-78
2022/06/08 13:07:24;;;;;;;;;;;;;;;;;;5079611;28;20360;-80
2022/06/08 13:10:10;;;;;;;;;;;;;;;;;;5085331;28;20021;-78
2022/06/08 13:12:58;;;;;;;;;;;;;;;;;;5074577;28;20347;-78
2022/06/08 13:15:45;;;;;;;;;;;;;;;;;;5089593;28;19912;-78
2022/06/08 13:18:32;;;;;;;;;;;;;;;;;;5080950;28;19923;-77
2022/06/08 13:21:18;;;;;;;;;;;;;;;;;;5079110;28;19911;-79
2022/06/08 13:24:05;;;;;;;;;;;;;;;;;;5084924;28;19908;-79
2022/06/08 13:26:53;;;;;;;;;;;;;;;;;;5084747;28;20129;-78
2022/06/08 13:29:40;;;;;;;;;;;;;;;;;;5078490;28;19909;-78
2022/06/08 13:32:26;;;;;;;;;;;;;;;;;;5083669;28;20409;-79
2022/06/08 13:35:13;;;;;;;;;;;;;;;;;;5080945;28;19920;-78
2022/06/08 13:37:59;;;;;;;;;;;;;;;;;;5076780;28;19920;-77
2022/06/08 13:40:48;;;;;;;;;;;;;;;;;;5075919;28;20325;-77
2022/06/08 13:43:36;;;;;;;;;;;;;;;;;;5071204;28;19908;-79
2022/06/08 13:46:23;;;;;;;;;;;;;;;;;;5079760;28;19930;-77
2022/06/08 13:49:09;;;;;;;;;;;;;;;;;;5088155;28;20383;-77
2022/06/08 13:51:56;;;;;;;;;;;;;;;;;;5085824;28;19917;-78
2022/06/08 13:54:42;;;;;;;;;;;;;;;;;;5084527;28;19920;-77
2022/06/08 13:57:29;;;;;;;;;;;;;;;;;;5075910;28;19916;-78
2022/06/08 14:00:16;;;;;;;;;;;;;;;;;;5082348;28;19909;-78
2022/06/08 14:03:03;;;;;;;;;;;;;;;;;;5082398;28;19913;-79
2022/06/08 14:15:05;;;;;;;;;;;;;;;;;;5084874;28;19908;-79
2022/06/08 14:17:52;;;;;;;;;;;;;;;;;;5071245;28;19924;-79
2022/06/08 14:20:39;;;;;;;;;;;;;;;;;;5082710;28;19923;-78
2022/06/08 14:23:25;;;;;;;;;;;;;;;;;;5072140;28;19912;-78
2022/06/08 14:26:12;;;;;;;;;;;;;;;;;;5078039;28;19920;-78
2022/06/08 14:28:58;;;;;;;;;;;;;;;;;;5084531;28;19916;-78
2022/06/08 14:31:45;;;;;;;;;;;;;;;;;;5075653;28;19916;-78
2022/06/08 14:34:32;;;;;;;;;;;;;;;;;;5070198;28;19908;-78
2022/06/08 14:37:18;;;;;;;;;;;;;;;;;;5077368;28;19943;-78
2022/06/08 14:40:04;;;;;;;;;;;;;;;;;;5072480;28;19913;-78
2022/06/08 14:42:51;;;;;;;;;;;;;;;;;;5054335;28;19936;-77
2022/06/08 14:45:37;;;;;;;;;;;;;;;;;;5067677;28;20312;-78
2022/06/08 14:48:24;;;;;;;;;;;;;;;;;;5087247;28;19912;-79
2022/06/08 14:51:10;;;;;;;;;;;;;;;;;;5078525;28;19939;-79
2022/06/08 14:53:57;;;;;;;;;;;;;;;;;;5086193;28;19919;-79
2022/06/08 14:56:43;;;;;;;;;;;;;;;;;;5083926;28;20029;-79
2022/06/08 14:59:30;;;;;;;;;;;;;;;;;;5077278;28;19916;-78
2022/06/08 15:02:16;;;;;;;;;;;;;;;;;;5066666;28;19912;-80
2022/06/08 15:05:07;;;;;;;;;;;;;;;;;;5080273;28;19916;-78
2022/06/08 15:07:53;;;;;;;;;;;;;;;;;;5083630;28;19912;-79
2022/06/08 15:13:45;;;;;;;;;;;;;;;;;;5081220;28;20237;-79
2022/06/08 15:16:32;;;;;;;;;;;;;;;;;;5080190;28;19920;-78
2022/06/08 15:19:18;;;;;;;;;;;;;;;;;;5069518;28;19912;-82
2022/06/08 15:22:05;;;;;;;;;;;;;;;;;;5079837;28;20334;-79
2022/06/08 15:24:51;;;;;;;;;;;;;;;;;;5080104;28;20568;-79
2022/06/08 15:27:38;;;;;;;;;;;;;;;;;;5080835;28;19916;-79
2022/06/08 15:30:24;;;;;;;;;;;;;;;;;;5082169;28;19918;-78
2022/06/08 15:33:11;;;;;;;;;;;;;;;;;;5080078;28;20288;-78
2022/06/08 15:35:57;;;;;;;;;;;;;;;;;;5077659;28;20508;-78
2022/06/08 15:38:51;;;;;;;;;;;;;;;;;;5080281;28;19963;-79
2022/06/08 15:41:38;;;;;;;;;;;;;;;;;;5081509;28;20373;-78
2022/06/08 15:44:24;;;;;;;;;;;;;;;;;;5082263;28;19912;-78
2022/06/08 15:47:11;;;;;;;;;;;;;;;;;;5084033;28;19919;-78
2022/06/08 15:49:57;;;;;;;;;;;;;;;;;;5067666;28;19943;-78
2022/06/08 15:52:44;;;;;;;;;;;;;;;;;;5080532;28;20291;-78
2022/06/08 15:55:30;;;;;;;;;;;;;;;;;;5079272;28;19923;-78
2022/06/08 15:58:17;;;;;;;;;;;;;;;;;;5079440;28;19912;-78
2022/06/08 16:01:03;;;;;;;;;;;;;;;;;;5079915;28;19922;-77
2022/06/08 16:03:50;;;;;;;;;;;;;;;;;;5081760;28;19909;-78
2022/06/08 16:06:36;;;;;;;;;;;;;;;;;;5076730;28;19920;-77
2022/06/08 16:09:23;;;;;;;;;;;;;;;;;;5079394;28;20268;-78
2022/06/08 16:12:10;;;;;;;;;;;;;;;;;;5075743;28;19924;-78
2022/06/08 16:14:57;;;;;;;;;;;;;;;;;;5075878;28;19908;-78
2022/06/08 16:17:43;;;;;;;;;;;;;;;;;;5076834;28;20712;-77
2022/06/08 16:20:30;;;;;;;;;;;;;;;;;;5080261;28;20374;-77
2022/06/08 16:23:17;;;;;;;;;;;;;;;;;;5073130;28;19912;-78
2022/06/08 16:26:03;;;;;;;;;;;;;;;;;;5076102;28;19908;-78
2022/06/08 16:28:50;;;;;;;;;;;;;;;;;;5074911;28;19912;-76
2022/06/08 16:31:36;;;;;;;;;;;;;;;;;;5076962;28;19923;-78
2022/06/08 16:34:23;;;;;;;;;;;;;;;;;;5076574;28;19930;-79
2022/06/08 16:37:09;;;;;;;;;;;;;;;;;;5072923;28;19920;-78
2022/06/08 16:39:56;;;;;;;;;;;;;;;;;;5081488;28;19919;-78
2022/06/08 16:42:42;;;;;;;;;;;;;;;;;;5085721;28;20018;-78
2022/06/08 16:45:29;;;;;;;;;;;;;;;;;;5080923;28;19908;-78
2022/06/08 16:48:15;;;;;;;;;;;;;;;;;;5071231;28;19909;-77
2022/06/08 16:51:02;;;;;;;;;;;;;;;;;;5080644;28;19939;-78
2022/06/08 16:53:48;;;;;;;;;;;;;;;;;;5077303;28;19935;-78
2022/06/08 16:59:41;;;;;;;;;;;;;;;;;;5076229;28;19913;-78
2022/06/08 17:02:27;;;;;;;;;;;;;;;;;;5078495;28;19916;-78
2022/06/08 17:05:15;;;;;;;;;;;;;;;;;;5071445;28;19913;-79
2022/06/08 17:08:06;;;;;;;;;;;;;;;;;;5076983;28;19916;-79
2022/06/08 17:13:58;;;;;;;;;;;;;;;;;;5074487;28;19935;-81
2022/06/08 17:16:44;;;;;;;;;;;;;;;;;;5065872;28;19920;-78
2022/06/08 17:19:31;;;;;;;;;;;;;;;;;;5080532;28;19924;-78
2022/06/08 17:22:17;;;;;;;;;;;;;;;;;;5079350;28;19917;-77
2022/06/08 17:25:04;;;;;;;;;;;;;;;;;;5079228;28;20371;-77
2022/06/08 17:27:50;;;;;;;;;;;;;;;;;;5076938;28;19912;-76
2022/06/08 17:30:37;;;;;;;;;;;;;;;;;;5076655;28;19946;-78
2022/06/08 17:33:23;;;;;;;;;;;;;;;;;;5072649;28;19924;-78
2022/06/08 17:36:10;;;;;;;;;;;;;;;;;;5073916;28;19927;-78
2022/06/08 17:38:57;;;;;;;;;;;;;;;;;;5081919;28;19912;-78
2022/06/08 17:41:43;;;;;;;;;;;;;;;;;;5077018;28;20392;-78
2022/06/08 17:44:30;;;;;;;;;;;;;;;;;;5076700;28;19909;-78
2022/06/08 17:47:18;;;;;;;;;;;;;;;;;;5080128;28;19918;-76
2022/06/08 17:50:05;;;;;;;;;;;;;;;;;;5082131;28;20292;-74
2022/06/08 17:52:54;;;;;;;;;;;;;;;;;;5068939;28;19920;-76
2022/06/08 17:55:41;;;;;;;;;;;;;;;;;;5071518;28;19923;-75
2022/06/08 17:58:27;;;;;;;;;;;;;;;;;;5075655;28;19912;-75
2022/06/08 18:01:14;;;;;;;;;;;;;;;;;;5069194;28;19919;-75
2022/06/08 18:04:00;;;;;;;;;;;;;;;;;;5079746;28;19920;-78
2022/06/08 18:06:47;;;;;;;;;;;;;;;;;;5077893;28;19932;-76
2022/06/08 18:09:42;;;;;;;;;;;;;;;;;;5051692;28;19916;-78
2022/06/08 18:12:29;;;;;;;;;;;;;;;;;;5055672;28;19931;-75
2022/06/08 18:15:15;;;;;;;;;;;;;;;;;;5071557;28;19908;-77
2022/06/08 18:18:02;;;;;;;;;;;;;;;;;;5076284;28;19927;-76
2022/06/08 18:20:49;;;;;;;;;;;;;;;;;;5068529;28;19919;-77
2022/06/08 18:23:35;;;;;;;;;;;;;;;;;;5070574;28;19935;-74
2022/06/08 18:26:25;;;;;;;;;;;;;;;;;;5073404;28;19912;-75
2022/06/08 18:29:11;;;;;;;;;;;;;;;;;;5073441;28;19908;-76
2022/06/08 18:31:58;;;;;;;;;;;;;;;;;;5074489;28;19924;-76
2022/06/08 18:34:44;;;;;;;;;;;;;;;;;;5075999;28;19912;-76
2022/06/08 18:37:32;;;;;;;;;;;;;;;;;;5061632;28;19927;-77
2022/06/08 18:40:18;;;;;;;;;;;;;;;;;;5058444;28;19916;-77
2022/06/08 18:43:05;;;;;;;;;;;;;;;;;;5056471;28;19918;-76
2022/06/08 18:45:54;;;;;;;;;;;;;;;;;;5064198;28;19943;-77
2022/06/08 18:48:40;;;;;;;;;;;;;;;;;;5056524;28;20232;-78
2022/06/08 18:51:27;;;;;;;;;;;;;;;;;;5075970;28;19923;-80
2022/06/08 18:54:13;;;;;;;;;;;;;;;;;;5071990;28;19916;-75
2022/06/08 18:57:00;;;;;;;;;;;;;;;;;;5082041;28;19928;-78
2022/06/08 18:59:46;;;;;;;;;;;;;;;;;;5081872;28;20373;-76
2022/06/08 19:02:33;;;;;;;;;;;;;;;;;;5089824;28;19918;-77
2022/06/08 19:05:19;;;;;;;;;;;;;;;;;;5087762;28;20276;-78
2022/06/08 19:08:09;;;;;;;;;;;;;;;;;;5076432;28;19914;-77
2022/06/08 19:10:55;;;;;;;;;;;;;;;;;;5080864;28;19909;-78
2022/06/08 19:13:42;;;;;;;;;;;;;;;;;;5073272;28;19926;-77
2022/06/08 19:16:29;;;;;;;;;;;;;;;;;;5065812;28;19916;-77
2022/06/08 19:22:21;;;;;;;;;;;;;;;;;;5075400;28;19919;-77
2022/06/08 19:25:08;;;;;;;;;;;;;;;;;;5085267;28;19934;-78
2022/06/08 19:27:54;;;;;;;;;;;;;;;;;;5069539;28;19908;-77
2022/06/08 19:30:59;;;;;;;;;;;;;;;;;;5076880;28;19912;-76
2022/06/08 19:33:45;;;;;;;;;;;;;;;;;;5056424;28;19916;-77
2022/06/08 19:36:31;;;;;;;;;;;;;;;;;;5053784;28;19923;-79